Time,TemperatureF,DewpointF,PressureIn,WindDirection,WindDirectionDegrees,WindSpeedMPH,WindSpeedGustMPH,Humidity,HourlyPrecipIn,Conditions,Clouds,dailyrainin,SoftwareType,DateUTC
2013-01-01 00:00:00,28.5,21.0,30.14,North,355,1.0,1.0,73,0.00,,---,0.00,VWS V14.01,2013-01-01 07:00:00,
2013-01-01 00:05:00,28.4,20.9,30.14,North,355,3.0,3.0,73,0.00,,---,0.00,VWS V14.01,2013-01-01 07:05:00,
2013-01-01 00:10:00,28.3,20.8,30.14,NNW,341,1.0,2.0,73,0.00,,---,0.00,VWS V14.01,2013-01-01 07:10:00,
2013-01-01 00:15:00,28.3,20.8,30.14,North,5,1.0,2.0,73,0.00,,---,0.00,VWS V14.01,2013-01-01 07:15:00,
2013-01-01 00:20:00,28.2,20.7,30.14,NNW,340,1.0,3.0,73,0.00,,---,0.00,VWS V14.01,2013-01-01 07:20:00,
2013-01-01 00:25:00,28.1,20.6,30.14,North,360,5.0,5.0,73,0.00,,---,0.00,VWS V14.01,2013-01-01 07:25:00,
2013-01-01 00:30:00,28.1,20.6,30.15,North,355,1.0,5.0,73,0.00,,---,0.00,VWS V14.01,2013-01-01 07:30:00,
2013-01-01 00:35:00,28.0,20.5,30.15,NNW,337,1.0,1.0,73,0.00,,---,0.00,VWS V14.01,2013-01-01 07:35:00,
2013-01-01 00:40:00,27.9,20.4,30.16,NNW,336,1.0,1.0,73,0.00,,---,0.00,VWS V14.01,2013-01-01 07:40:00,
2013-01-01 00:45:00,27.8,20.3,30.16,NNW,337,2.0,2.0,73,0.00,,---,0.00,VWS V14.01,2013-01-01 07:45:00,
2013-01-01 00:50:00,27.7,20.2,30.16,North,360,4.0,4.0,73,0.00,,---,0.00,VWS V14.01,2013-01-01 07:50:00,
2013-01-01 00:55:00,27.5,20.0,30.16,NNW,338,1.0,2.0,73,0.00,,---,0.00,VWS V14.01,2013-01-01 07:55:00,
2013-01-01 01:00:00,27.4,19.9,30.16,North,360,1.0,4.0,73,0.00,,---,0.00,VWS V14.01,2013-01-01 08:00:00,
2013-01-01 01:05:00,27.3,19.8,30.16,NNE,22,1.0,2.0,73,0.00,,---,0.00,VWS V14.01,2013-01-01 08:05:00,
2013-01-01 01:10:00,27.1,19.9,30.16,NNW,342,1.0,2.0,74,0.00,,---,0.00,VWS V14.01,2013-01-01 08:10:00,
2013-01-01 01:15:00,27.0,19.8,30.17,NNW,339,2.0,2.0,74,0.00,,---,0.00,VWS V14.01,2013-01-01 08:15:00,
2013-01-01 01:20:00,26.8,19.6,30.17,NNW,344,2.0,2.0,74,0.00,,---,0.00,VWS V14.01,2013-01-01 08:20:00,
2013-01-01 01:25:00,26.7,19.5,30.17,North,360,4.0,5.0,74,0.00,,---,0.00,VWS V14.01,2013-01-01 08:25:00,
2013-01-01 01:30:00,26.5,19.4,30.17,NNW,346,3.0,4.0,74,0.00,,---,0.00,VWS V14.01,2013-01-01 08:30:00,
2013-01-01 01:35:00,26.3,19.5,30.17,North,350,1.0,4.0,75,0.00,,---,0.00,VWS V14.01,2013-01-01 08:35:00,
2013-01-01 01:40:00,26.1,19.3,30.17,North,5,0.0,0.0,75,0.00,,---,0.00,VWS V14.01,2013-01-01 08:40:00,
2013-01-01 01:45:00,26.0,19.2,30.17,North,355,0.0,0.0,75,0.00,,---,0.00,VWS V14.01,2013-01-01 08:45:00,
2013-01-01 01:50:00,25.9,19.1,30.17,NNW,333,2.0,2.0,75,0.00,,---,0.00,VWS V14.01,2013-01-01 08:50:00,
2013-01-01 01:55:00,25.8,19.3,30.17,NNW,345,1.0,1.0,76,0.00,,---,0.00,VWS V14.01,2013-01-01 08:55:00,
2013-01-01 02:00:00,25.8,19.3,30.17,North,355,0.0,1.0,76,0.00,,---,0.00,VWS V14.01,2013-01-01 09:00:00,
2013-01-01 02:05:00,25.6,19.1,30.17,North,355,1.0,1.0,76,0.00,,---,0.00,VWS V14.01,2013-01-01 09:05:00,
2013-01-01 02:10:00,25.4,18.9,30.17,North,355,0.0,0.0,76,0.00,,---,0.00,VWS V14.01,2013-01-01 09:10:00,
2013-01-01 02:15:00,25.3,18.8,30.18,North,5,0.0,0.0,76,0.00,,---,0.00,VWS V14.01,2013-01-01 09:15:00,
2013-01-01 02:20:00,25.3,18.8,30.18,North,355,0.0,0.0,76,0.00,,---,0.00,VWS V14.01,2013-01-01 09:20:00,
2013-01-01 02:25:00,25.1,18.6,30.18,North,355,0.0,1.0,76,0.00,,---,0.00,VWS V14.01,2013-01-01 09:25:00,
2013-01-01 02:30:00,25.0,18.5,30.18,North,355,0.0,1.0,76,0.00,,---,0.00,VWS V14.01,2013-01-01 09:30:00,
2013-01-01 02:35:00,24.9,18.7,30.18,NNW,346,0.0,2.0,77,0.00,,---,0.00,VWS V14.01,2013-01-01 09:35:00,
2013-01-01 02:40:00,24.9,18.7,30.19,NNW,342,0.0,2.0,77,0.00,,---,0.00,VWS V14.01,2013-01-01 09:40:00,
2013-01-01 02:45:00,24.8,18.6,30.19,NNW,339,1.0,2.0,77,0.00,,---,0.00,VWS V14.01,2013-01-01 09:45:00,
2013-01-01 02:50:00,24.8,18.6,30.19,North,360,0.0,0.0,77,0.00,,---,0.00,VWS V14.01,2013-01-01 09:50:00,
2013-01-01 02:55:00,24.7,18.5,30.19,NNW,345,0.0,0.0,77,0.00,,---,0.00,VWS V14.01,2013-01-01 09:55:00,
2013-01-01 03:00:00,24.7,18.5,30.19,NW,311,0.0,1.0,77,0.00,,---,0.00,VWS V14.01,2013-01-01 10:00:00,
2013-01-01 03:05:00,24.6,18.4,30.19,NNW,346,1.0,1.0,77,0.00,,---,0.00,VWS V14.01,2013-01-01 10:05:00,
2013-01-01 03:10:00,24.3,18.1,30.20,NNW,341,1.0,1.0,77,0.00,,---,0.00,VWS V14.01,2013-01-01 10:10:00,
2013-01-01 03:15:00,24.2,18.0,30.20,North,355,0.0,0.0,77,0.00,,---,0.00,VWS V14.01,2013-01-01 10:15:00,
2013-01-01 03:25:00,24.0,18.1,30.20,NNW,342,0.0,2.0,78,0.00,,---,0.00,VWS V14.01,2013-01-01 10:25:00,
2013-01-01 03:30:00,23.8,18.0,30.21,NNW,337,1.0,1.0,78,0.00,,---,0.00,VWS V14.01,2013-01-01 10:30:00,
2013-01-01 03:35:00,23.8,18.0,30.21,NNW,337,0.0,1.0,78,0.00,,---,0.00,VWS V14.01,2013-01-01 10:35:00,
2013-01-01 03:40:00,23.6,17.8,30.21,NNW,340,2.0,2.0,78,0.00,,---,0.00,VWS V14.01,2013-01-01 10:40:00,
2013-01-01 03:45:00,23.5,17.7,30.21,NNW,340,1.0,2.0,78,0.00,,---,0.00,VWS V14.01,2013-01-01 10:45:00,
2013-01-01 03:50:00,23.5,17.7,30.21,NNW,340,0.0,0.0,78,0.00,,---,0.00,VWS V14.01,2013-01-01 10:50:00,
2013-01-01 03:55:00,23.4,17.6,30.21,NNW,333,3.0,3.0,78,0.00,,---,0.00,VWS V14.01,2013-01-01 10:55:00,
2013-01-01 04:00:00,23.4,17.6,30.21,NW,325,0.0,3.0,78,0.00,,---,0.00,VWS V14.01,2013-01-01 11:00:00,
2013-01-01 04:05:00,23.4,17.6,30.21,North,355,1.0,1.0,78,0.00,,---,0.00,VWS V14.01,2013-01-01 11:05:00,
2013-01-01 04:10:00,23.5,17.7,30.20,NNW,348,3.0,3.0,78,0.00,,---,0.00,VWS V14.01,2013-01-01 11:10:00,
2013-01-01 04:15:00,23.6,17.5,30.21,NW,320,3.0,3.0,77,0.00,,---,0.00,VWS V14.01,2013-01-01 11:15:00,
2013-01-01 04:20:00,23.7,17.3,30.21,North,355,1.0,3.0,76,0.00,,---,0.00,VWS V14.01,2013-01-01 11:20:00,
2013-01-01 04:25:00,23.7,17.0,30.21,NW,319,0.0,0.0,75,0.00,,---,0.00,VWS V14.01,2013-01-01 11:25:00,
2013-01-01 04:30:00,23.6,16.9,30.22,NNW,340,3.0,4.0,75,0.00,,---,0.00,VWS V14.01,2013-01-01 11:30:00,
2013-01-01 04:35:00,23.6,16.9,30.22,NW,311,3.0,3.0,75,0.00,,---,0.00,VWS V14.01,2013-01-01 11:35:00,
2013-01-01 04:40:00,23.5,16.8,30.22,NNW,348,0.0,2.0,75,0.00,,---,0.00,VWS V14.01,2013-01-01 11:40:00,
2013-01-01 04:45:00,23.4,16.7,30.22,NNW,348,0.0,2.0,75,0.00,,---,0.00,VWS V14.01,2013-01-01 11:45:00,
2013-01-01 04:50:00,23.2,16.8,30.22,NNW,348,0.0,2.0,76,0.00,,---,0.00,VWS V14.01,2013-01-01 11:50:00,
2013-01-01 04:55:00,22.8,16.4,30.22,NNW,348,0.0,2.0,76,0.00,,---,0.00,VWS V14.01,2013-01-01 11:55:00,
2013-01-01 05:00:00,22.5,16.1,30.22,NNW,348,0.0,2.0,76,0.00,,---,0.00,VWS V14.01,2013-01-01 12:00:00,
2013-01-01 05:05:00,22.4,16.3,30.23,NNW,348,0.0,0.0,77,0.00,,---,0.00,VWS V14.01,2013-01-01 12:05:00,
2013-01-01 05:10:00,22.4,16.3,30.22,NNW,348,0.0,0.0,77,0.00,,---,0.00,VWS V14.01,2013-01-01 12:10:00,
2013-01-01 05:15:00,22.3,16.2,30.23,NNW,348,1.0,1.0,77,0.00,,---,0.00,VWS V14.01,2013-01-01 12:15:00,
2013-01-01 05:20:00,22.3,16.2,30.23,NNW,348,2.0,2.0,77,0.00,,---,0.00,VWS V14.01,2013-01-01 12:20:00,
2013-01-01 05:25:00,22.2,16.1,30.23,NNW,348,0.0,0.0,77,0.00,,---,0.00,VWS V14.01,2013-01-01 12:25:00,
2013-01-01 05:30:00,22.1,16.0,30.24,NNW,348,0.0,0.0,77,0.00,,---,0.00,VWS V14.01,2013-01-01 12:30:00,
2013-01-01 05:35:00,21.7,15.6,30.23,NNW,348,0.0,0.0,77,0.00,,---,0.00,VWS V14.01,2013-01-01 12:35:00,
2013-01-01 05:40:00,21.5,15.7,30.24,NNW,348,0.0,0.0,78,0.00,,---,0.00,VWS V14.01,2013-01-01 12:40:00,
2013-01-01 05:45:00,21.1,15.6,30.24,NNW,348,0.0,0.0,79,0.00,,---,0.00,VWS V14.01,2013-01-01 12:45:00,
2013-01-01 05:50:00,20.9,15.4,30.24,NNW,348,0.0,0.0,79,0.00,,---,0.00,VWS V14.01,2013-01-01 12:50:00,
2013-01-01 05:55:00,20.5,15.3,30.24,NNW,348,0.0,0.0,80,0.00,,---,0.00,VWS V14.01,2013-01-01 12:55:00,
2013-01-01 06:00:00,20.3,15.4,30.24,NNW,348,0.0,0.0,81,0.00,,---,0.00,VWS V14.01,2013-01-01 13:00:00,
2013-01-01 06:05:00,20.2,15.3,30.25,NNW,348,0.0,0.0,81,0.00,,---,0.00,VWS V14.01,2013-01-01 13:05:00,
2013-01-01 06:10:00,20.2,15.6,30.25,NNW,348,0.0,0.0,82,0.00,,---,0.00,VWS V14.01,2013-01-01 13:10:00,
2013-01-01 06:15:00,20.1,15.5,30.25,NNW,348,0.0,0.0,82,0.00,,---,0.00,VWS V14.01,2013-01-01 13:15:00,
2013-01-01 06:20:00,19.9,15.3,30.25,NNW,348,0.0,0.0,82,0.00,,---,0.00,VWS V14.01,2013-01-01 13:20:00,
2013-01-01 06:25:00,20.0,15.7,30.25,NNW,348,0.0,0.0,83,0.00,,---,0.00,VWS V14.01,2013-01-01 13:25:00,
2013-01-01 06:30:00,20.1,15.8,30.25,NNW,348,0.0,0.0,83,0.00,,---,0.00,VWS V14.01,2013-01-01 13:30:00,
2013-01-01 06:35:00,20.1,15.5,30.25,NNW,348,0.0,0.0,82,0.00,,---,0.00,VWS V14.01,2013-01-01 13:35:00,
2013-01-01 06:40:00,20.1,15.5,30.25,NNW,348,0.0,0.0,82,0.00,,---,0.00,VWS V14.01,2013-01-01 13:40:00,
2013-01-01 06:45:00,20.2,15.6,30.26,NNW,348,0.0,0.0,82,0.00,,---,0.00,VWS V14.01,2013-01-01 13:45:00,
2013-01-01 06:50:00,20.3,15.4,30.26,NNW,348,0.0,2.0,81,0.00,,---,0.00,VWS V14.01,2013-01-01 13:50:00,
2013-01-01 06:55:00,20.3,15.1,30.26,NNW,348,0.0,1.0,80,0.00,,---,0.00,VWS V14.01,2013-01-01 13:55:00,
2013-01-01 07:00:00,20.1,14.9,30.26,NNW,348,0.0,0.0,80,0.00,,---,0.00,VWS V14.01,2013-01-01 14:00:00,
2013-01-01 07:05:00,20.3,15.4,30.26,NNW,348,0.0,0.0,81,0.00,,---,0.00,VWS V14.01,2013-01-01 14:05:00,
2013-01-01 07:10:00,20.0,14.8,30.27,NNW,348,0.0,0.0,80,0.00,,---,0.00,VWS V14.01,2013-01-01 14:10:00,
2013-01-01 07:15:00,19.7,14.5,30.27,NNW,348,0.0,0.0,80,0.00,,---,0.00,VWS V14.01,2013-01-01 14:15:00,
2013-01-01 07:20:00,19.3,14.4,30.27,NNW,348,0.0,0.0,81,0.00,,---,0.00,VWS V14.01,2013-01-01 14:20:00,
2013-01-01 07:25:00,18.9,14.3,30.28,NNW,348,0.0,0.0,82,0.00,,---,0.00,VWS V14.01,2013-01-01 14:25:00,
2013-01-01 07:30:00,18.7,14.1,30.28,NNW,338,0.0,0.0,82,0.00,,---,0.00,VWS V14.01,2013-01-01 14:30:00,
2013-01-01 07:35:00,18.8,14.2,30.28,NNW,338,0.0,0.0,82,0.00,,---,0.00,VWS V14.01,2013-01-01 14:35:00,
2013-01-01 07:40:00,18.8,13.9,30.28,NNW,338,0.0,0.0,81,0.00,,---,0.00,VWS V14.01,2013-01-01 14:40:00,
2013-01-01 07:45:00,19.3,14.1,30.28,NNW,338,0.0,0.0,80,0.00,,---,0.00,VWS V14.01,2013-01-01 14:45:00,
2013-01-01 07:50:00,19.7,14.3,30.28,NNW,338,0.0,0.0,79,0.00,,---,0.00,VWS V14.01,2013-01-01 14:50:00,
2013-01-01 07:55:00,20.0,14.6,30.28,NNW,338,0.0,1.0,79,0.00,,---,0.00,VWS V14.01,2013-01-01 14:55:00,
2013-01-01 08:00:00,20.5,14.7,30.28,NW,306,1.0,2.0,78,0.00,,---,0.00,VWS V14.01,2013-01-01 15:00:00,
2013-01-01 08:05:00,20.8,15.0,30.29,NW,306,0.0,2.0,78,0.00,,---,0.00,VWS V14.01,2013-01-01 15:05:00,
2013-01-01 08:10:00,21.6,14.9,30.29,NNW,328,0.0,0.0,75,0.00,,---,0.00,VWS V14.01,2013-01-01 15:10:00,
2013-01-01 08:15:00,21.9,14.9,30.30,WNW,302,0.0,0.0,74,0.00,,---,0.00,VWS V14.01,2013-01-01 15:15:00,
2013-01-01 08:20:00,22.1,15.4,30.30,NW,305,0.0,2.0,75,0.00,,---,0.00,VWS V14.01,2013-01-01 15:20:00,
2013-01-01 08:25:00,22.4,15.1,30.31,NW,306,0.0,0.0,73,0.00,,---,0.00,VWS V14.01,2013-01-01 15:25:00,
2013-01-01 08:30:00,22.8,15.1,30.31,NW,306,1.0,2.0,72,0.00,,---,0.00,VWS V14.01,2013-01-01 15:30:00,
2013-01-01 08:35:00,23.3,15.6,30.31,NW,306,0.0,0.0,72,0.00,,---,0.00,VWS V14.01,2013-01-01 15:35:00,
2013-01-01 08:40:00,23.6,15.3,30.31,NW,306,0.0,0.0,70,0.00,,---,0.00,VWS V14.01,2013-01-01 15:40:00,
2013-01-01 08:45:00,24.0,15.6,30.32,NNW,333,2.0,2.0,70,0.00,,---,0.00,VWS V14.01,2013-01-01 15:45:00,
2013-01-01 08:50:00,24.3,15.6,30.32,NNW,335,3.0,4.0,69,0.00,,---,0.00,VWS V14.01,2013-01-01 15:50:00,
2013-01-01 08:55:00,24.6,15.6,30.32,NW,313,2.0,2.0,68,0.00,,---,0.00,VWS V14.01,2013-01-01 15:55:00,
2013-01-01 09:00:00,24.9,15.5,30.33,NNW,329,1.0,1.0,67,0.00,,---,0.00,VWS V14.01,2013-01-01 16:00:00,
2013-01-01 09:05:00,25.3,15.6,30.34,NW,317,1.0,1.0,66,0.00,,---,0.00,VWS V14.01,2013-01-01 16:05:00,
2013-01-01 09:10:00,25.6,15.5,30.34,NW,309,0.0,1.0,65,0.00,,---,0.00,VWS V14.01,2013-01-01 16:10:00,
2013-01-01 09:15:00,25.8,15.7,30.34,North,350,2.0,3.0,65,0.00,,---,0.00,VWS V14.01,2013-01-01 16:15:00,
2013-01-01 09:20:00,26.4,15.9,30.34,NW,311,1.0,1.0,64,0.00,,---,0.00,VWS V14.01,2013-01-01 16:20:00,
2013-01-01 09:25:00,26.5,15.6,30.34,NW,308,1.0,1.0,63,0.00,,---,0.00,VWS V14.01,2013-01-01 16:25:00,
2013-01-01 09:30:00,26.3,15.4,30.35,NW,306,3.0,3.0,63,0.00,,---,0.00,VWS V14.01,2013-01-01 16:30:00,
2013-01-01 09:35:00,26.4,15.9,30.34,NNW,346,2.0,4.0,64,0.00,,---,0.00,VWS V14.01,2013-01-01 16:35:00,
2013-01-01 09:40:00,26.6,16.1,30.34,NNW,335,0.0,2.0,64,0.00,,---,0.00,VWS V14.01,2013-01-01 16:40:00,
2013-01-01 09:45:00,26.7,15.8,30.34,NNW,327,0.0,2.0,63,0.00,,---,0.00,VWS V14.01,2013-01-01 16:45:00,
2013-01-01 09:50:00,27.1,15.4,30.34,NNW,335,3.0,3.0,61,0.00,,---,0.00,VWS V14.01,2013-01-01 16:50:00,
2013-01-01 09:55:00,27.5,16.6,30.34,NNW,340,0.0,3.0,63,0.00,,---,0.00,VWS V14.01,2013-01-01 16:55:00,
2013-01-01 10:00:00,28.0,15.9,30.34,NNW,335,4.0,4.0,60,0.00,,---,0.00,VWS V14.01,2013-01-01 17:00:00,
2013-01-01 10:05:00,27.9,16.2,30.34,NW,317,1.0,2.0,61,0.00,,---,0.00,VWS V14.01,2013-01-01 17:05:00,
2013-01-01 10:10:00,28.4,15.9,30.35,West,281,1.0,2.0,59,0.00,,---,0.00,VWS V14.01,2013-01-01 17:10:00,
2013-01-01 10:15:00,28.7,15.8,30.35,WNW,298,1.0,2.0,58,0.00,,---,0.00,VWS V14.01,2013-01-01 17:15:00,
2013-01-01 10:20:00,28.8,16.3,30.35,NNW,329,0.0,2.0,59,0.00,,---,0.00,VWS V14.01,2013-01-01 17:20:00,
2013-01-01 10:25:00,28.8,15.9,30.35,NNW,332,3.0,3.0,58,0.00,,---,0.00,VWS V14.01,2013-01-01 17:25:00,
2013-01-01 10:30:00,28.9,16.0,30.35,NNW,335,0.0,3.0,58,0.00,,---,0.00,VWS V14.01,2013-01-01 17:30:00,
2013-01-01 10:35:00,29.2,15.9,30.35,NNW,338,3.0,4.0,57,0.00,,---,0.00,VWS V14.01,2013-01-01 17:35:00,
2013-01-01 10:40:00,29.6,15.8,30.35,North,351,5.0,5.0,56,0.00,,---,0.00,VWS V14.01,2013-01-01 17:40:00,
2013-01-01 10:45:00,30.1,15.9,30.35,NW,305,1.0,1.0,55,0.00,,---,0.00,VWS V14.01,2013-01-01 17:45:00,
2013-01-01 10:50:00,30.6,16.8,30.34,NNE,31,3.0,3.0,56,0.00,,---,0.00,VWS V14.01,2013-01-01 17:50:00,
2013-01-01 10:55:00,30.9,16.6,30.34,NNW,336,0.0,1.0,55,0.00,,---,0.00,VWS V14.01,2013-01-01 17:55:00,
2013-01-01 11:00:00,31.6,16.5,30.34,WNW,296,0.0,2.0,53,0.00,,---,0.00,VWS V14.01,2013-01-01 18:00:00,
2013-01-01 11:05:00,31.6,16.5,30.33,NW,321,2.0,2.0,53,0.00,,---,0.00,VWS V14.01,2013-01-01 18:05:00,
2013-01-01 11:10:00,31.5,16.8,30.33,NNW,332,3.0,3.0,54,0.00,,---,0.00,VWS V14.01,2013-01-01 18:10:00,
2013-01-01 11:15:00,31.7,16.1,30.33,NNW,338,1.0,1.0,52,0.00,,---,0.00,VWS V14.01,2013-01-01 18:15:00,
2013-01-01 11:20:00,32.6,16.9,30.32,North,349,3.0,4.0,52,0.00,,---,0.00,VWS V14.01,2013-01-01 18:20:00,
2013-01-01 11:25:00,32.1,15.1,30.32,West,277,1.0,2.0,49,0.00,,---,0.00,VWS V14.01,2013-01-01 18:25:00,
2013-01-01 11:30:00,32.4,16.3,30.31,NW,321,1.0,4.0,51,0.00,,---,0.00,VWS V14.01,2013-01-01 18:30:00,
2013-01-01 11:35:00,31.9,15.4,30.30,North,5,2.0,4.0,50,0.00,,---,0.00,VWS V14.01,2013-01-01 18:35:00,
2013-01-01 11:40:00,31.9,15.8,30.30,North,355,3.0,3.0,51,0.00,,---,0.00,VWS V14.01,2013-01-01 18:40:00,
2013-01-01 11:45:00,32.8,16.7,30.29,West,280,0.0,3.0,51,0.00,,---,0.00,VWS V14.01,2013-01-01 18:45:00,
2013-01-01 11:50:00,33.3,15.7,30.28,WSW,251,1.0,3.0,48,0.00,,---,0.00,VWS V14.01,2013-01-01 18:50:00,
2013-01-01 11:55:00,33.5,16.4,30.28,NNW,340,2.0,3.0,49,0.00,,---,0.00,VWS V14.01,2013-01-01 18:55:00,
2013-01-01 12:00:00,33.9,15.8,30.27,North,355,3.0,3.0,47,0.00,,---,0.00,VWS V14.01,2013-01-01 19:00:00,
2013-01-01 12:05:00,33.7,16.1,30.27,WSW,242,2.0,2.0,48,0.00,,---,0.00,VWS V14.01,2013-01-01 19:05:00,
2013-01-01 12:10:00,33.6,16.0,30.27,SW,227,1.0,3.0,48,0.00,,---,0.00,VWS V14.01,2013-01-01 19:10:00,
2013-01-01 12:15:00,33.7,15.6,30.26,NNW,331,2.0,2.0,47,0.00,,---,0.00,VWS V14.01,2013-01-01 19:15:00,
2013-01-01 12:20:00,33.9,15.8,30.26,NNE,26,7.0,7.0,47,0.00,,---,0.00,VWS V14.01,2013-01-01 19:20:00,
2013-01-01 12:25:00,34.0,15.9,30.26,WSW,249,1.0,2.0,47,0.00,,---,0.00,VWS V14.01,2013-01-01 19:25:00,
2013-01-01 12:30:00,34.5,15.9,30.25,WSW,244,2.0,3.0,46,0.00,,---,0.00,VWS V14.01,2013-01-01 19:30:00,
2013-01-01 12:35:00,34.4,15.3,30.25,SW,231,1.0,3.0,45,0.00,,---,0.00,VWS V14.01,2013-01-01 19:35:00,
2013-01-01 12:40:00,34.6,16.5,30.25,NNW,348,4.0,4.0,47,0.00,,---,0.00,VWS V14.01,2013-01-01 19:40:00,
2013-01-01 12:45:00,35.5,16.3,30.25,NW,325,3.0,3.0,45,0.00,,---,0.00,VWS V14.01,2013-01-01 19:45:00,
2013-01-01 12:50:00,35.8,16.0,30.25,NE,40,3.0,3.0,44,0.00,,---,0.00,VWS V14.01,2013-01-01 19:50:00,
2013-01-01 12:55:00,35.7,15.9,30.25,NNE,28,8.0,8.0,44,0.00,,---,0.00,VWS V14.01,2013-01-01 19:55:00,
2013-01-01 13:00:00,35.7,15.9,30.25,NW,316,6.0,8.0,44,0.00,,---,0.00,VWS V14.01,2013-01-01 20:00:00,
2013-01-01 13:05:00,36.1,15.8,30.24,North,355,4.0,4.0,43,0.00,,---,0.00,VWS V14.01,2013-01-01 20:05:00,
2013-01-01 13:10:00,35.0,15.3,30.25,NNE,19,3.0,4.0,44,0.00,,---,0.00,VWS V14.01,2013-01-01 20:10:00,
2013-01-01 13:15:00,35.0,15.8,30.25,NW,311,3.0,3.0,45,0.00,,---,0.00,VWS V14.01,2013-01-01 20:15:00,
2013-01-01 13:20:00,34.6,15.5,30.25,North,360,3.0,3.0,45,0.00,,---,0.00,VWS V14.01,2013-01-01 20:20:00,
2013-01-01 13:25:00,35.7,15.9,30.25,NNW,346,4.0,4.0,44,0.00,,---,0.00,VWS V14.01,2013-01-01 20:25:00,
2013-01-01 13:30:00,35.8,16.0,30.25,NNW,341,5.0,5.0,44,0.00,,---,0.00,VWS V14.01,2013-01-01 20:30:00,
2013-01-01 13:35:00,35.0,15.3,30.25,NW,321,3.0,3.0,44,0.00,,---,0.00,VWS V14.01,2013-01-01 20:35:00,
2013-01-01 13:40:00,34.5,15.4,30.25,North,5,3.0,3.0,45,0.00,,---,0.00,VWS V14.01,2013-01-01 20:40:00,
2013-01-01 13:45:00,34.2,15.1,30.25,North,5,6.0,6.0,45,0.00,,---,0.00,VWS V14.01,2013-01-01 20:45:00,
2013-01-01 13:50:00,35.1,15.9,30.25,NNW,336,3.0,6.0,45,0.00,,---,0.00,VWS V14.01,2013-01-01 20:50:00,
2013-01-01 13:55:00,35.9,15.6,30.25,North,5,4.0,4.0,43,0.00,,---,0.00,VWS V14.01,2013-01-01 20:55:00,
2013-01-01 14:00:00,36.2,15.9,30.25,NNW,347,10.0,10.0,43,0.00,,---,0.00,VWS V14.01,2013-01-01 21:00:00,
2013-01-01 14:05:00,36.1,16.3,30.25,WNW,286,1.0,1.0,44,0.00,,---,0.00,VWS V14.01,2013-01-01 21:05:00,
2013-01-01 14:10:00,35.5,15.2,30.26,NW,317,3.0,3.0,43,0.00,,---,0.00,VWS V14.01,2013-01-01 21:10:00,
2013-01-01 14:15:00,35.6,15.9,30.25,NNW,331,3.0,3.0,44,0.00,,---,0.00,VWS V14.01,2013-01-01 21:15:00,
2013-01-01 14:20:00,36.3,16.0,30.25,NNW,333,4.0,6.0,43,0.00,,---,0.00,VWS V14.01,2013-01-01 21:20:00,
2013-01-01 14:25:00,35.8,15.5,30.25,NE,50,0.0,2.0,43,0.00,,---,0.00,VWS V14.01,2013-01-01 21:25:00,
2013-01-01 14:30:00,36.6,16.2,30.25,North,350,5.0,5.0,43,0.00,,---,0.00,VWS V14.01,2013-01-01 21:30:00,
2013-01-01 14:35:00,36.7,15.2,30.25,WNW,294,3.0,9.0,41,0.00,,---,0.00,VWS V14.01,2013-01-01 21:35:00,
2013-01-01 14:40:00,36.2,14.8,30.25,SW,221,2.0,9.0,41,0.00,,---,0.00,VWS V14.01,2013-01-01 21:40:00,
2013-01-01 14:45:00,34.9,14.1,30.25,NW,323,2.0,3.0,42,0.00,,---,0.00,VWS V14.01,2013-01-01 21:45:00,
2013-01-01 14:50:00,34.4,14.8,30.25,NNW,336,4.0,4.0,44,0.00,,---,0.00,VWS V14.01,2013-01-01 21:50:00,
2013-01-01 14:55:00,34.9,15.2,30.26,NNW,340,7.0,7.0,44,0.00,,---,0.00,VWS V14.01,2013-01-01 21:55:00,
2013-01-01 15:00:00,34.9,14.7,30.26,NNW,337,6.0,6.0,43,0.00,,---,0.00,VWS V14.01,2013-01-01 22:00:00,
2013-01-01 15:05:00,34.8,15.1,30.26,NNW,342,8.0,8.0,44,0.00,,---,0.00,VWS V14.01,2013-01-01 22:05:00,
2013-01-01 15:10:00,35.2,14.4,30.26,NNE,19,8.0,8.0,42,0.00,,---,0.00,VWS V14.01,2013-01-01 22:10:00,
2013-01-01 15:15:00,35.3,14.5,30.27,WNW,293,3.0,8.0,42,0.00,,---,0.00,VWS V14.01,2013-01-01 22:15:00,
2013-01-01 15:20:00,34.9,14.7,30.27,NNW,342,5.0,7.0,43,0.00,,---,0.00,VWS V14.01,2013-01-01 22:20:00,
2013-01-01 15:25:00,34.9,14.7,30.27,NW,317,7.0,7.0,43,0.00,,---,0.00,VWS V14.01,2013-01-01 22:25:00,
2013-01-01 15:30:00,34.4,14.2,30.27,NW,309,2.0,2.0,43,0.00,,---,0.00,VWS V14.01,2013-01-01 22:30:00,
2013-01-01 15:35:00,35.0,14.2,30.27,North,355,2.0,4.0,42,0.00,,---,0.00,VWS V14.01,2013-01-01 22:35:00,
2013-01-01 15:40:00,35.2,13.9,30.27,North,9,6.0,10.0,41,0.00,,---,0.00,VWS V14.01,2013-01-01 22:40:00,
2013-01-01 15:45:00,34.7,13.4,30.27,WNW,301,3.0,10.0,41,0.00,,---,0.00,VWS V14.01,2013-01-01 22:45:00,
2013-01-01 15:50:00,34.7,14.0,30.28,NNW,343,2.0,2.0,42,0.00,,---,0.00,VWS V14.01,2013-01-01 22:50:00,
2013-01-01 15:55:00,34.6,13.9,30.28,NNW,343,3.0,3.0,42,0.00,,---,0.00,VWS V14.01,2013-01-01 22:55:00,
2013-01-01 16:00:00,34.5,13.2,30.28,NNW,344,8.0,10.0,41,0.00,,---,0.00,VWS V14.01,2013-01-01 23:00:00,
2013-01-01 16:05:00,34.4,13.7,30.29,North,350,2.0,10.0,42,0.00,,---,0.00,VWS V14.01,2013-01-01 23:05:00,
2013-01-01 16:10:00,33.9,13.8,30.29,NW,316,3.0,10.0,43,0.00,,---,0.00,VWS V14.01,2013-01-01 23:10:00,
2013-01-01 16:15:00,33.6,14.0,30.29,WSW,254,4.0,6.0,44,0.00,,---,0.00,VWS V14.01,2013-01-01 23:15:00,
2013-01-01 16:20:00,33.5,13.9,30.29,North,11,6.0,9.0,44,0.00,,---,0.00,VWS V14.01,2013-01-01 23:20:00,
2013-01-01 16:25:00,33.3,14.3,30.28,NW,321,5.0,12.0,45,0.00,,---,0.00,VWS V14.01,2013-01-01 23:25:00,
2013-01-01 16:30:00,33.1,14.1,30.29,NNE,13,3.0,12.0,45,0.00,,---,0.00,VWS V14.01,2013-01-01 23:30:00,
2013-01-01 16:35:00,33.0,14.5,30.29,North,360,7.0,7.0,46,0.00,,---,0.00,VWS V14.01,2013-01-01 23:35:00,
2013-01-01 16:40:00,32.8,14.3,30.30,North,355,6.0,7.0,46,0.00,,---,0.00,VWS V14.01,2013-01-01 23:40:00,
2013-01-01 16:45:00,32.3,13.9,30.30,NNW,338,5.0,5.0,46,0.00,,---,0.00,VWS V14.01,2013-01-01 23:45:00,
2013-01-01 16:50:00,31.9,14.0,30.31,NNW,327,4.0,7.0,47,0.00,,---,0.00,VWS V14.01,2013-01-01 23:50:00,
2013-01-01 16:55:00,31.6,13.7,30.31,North,5,7.0,8.0,47,0.00,,---,0.00,VWS V14.01,2013-01-01 23:55:00,
2013-01-01 17:00:00,31.4,14.0,30.31,NW,321,3.0,8.0,48,0.00,,---,0.00,VWS V14.01,2013-01-02 00:00:00,
2013-01-01 17:05:00,31.1,13.2,30.31,NNW,344,1.0,4.0,47,0.00,,---,0.00,VWS V14.01,2013-01-02 00:05:00,
2013-01-01 17:10:00,30.8,12.0,30.31,NW,319,6.0,6.0,45,0.00,,---,0.00,VWS V14.01,2013-01-02 00:10:00,
2013-01-01 17:15:00,30.7,11.4,30.32,NNW,348,3.0,8.0,44,0.00,,---,0.00,VWS V14.01,2013-01-02 00:15:00,
2013-01-01 17:20:00,30.5,11.7,30.32,NNW,341,2.0,3.0,45,0.00,,---,0.00,VWS V14.01,2013-01-02 00:20:00,
2013-01-01 17:25:00,30.3,11.5,30.32,NNW,348,4.0,4.0,45,0.00,,---,0.00,VWS V14.01,2013-01-02 00:25:00,
2013-01-01 17:30:00,30.3,12.0,30.32,NNE,13,4.0,4.0,46,0.00,,---,0.00,VWS V14.01,2013-01-02 00:30:00,
2013-01-01 17:35:00,30.1,12.3,30.32,NNW,346,5.0,5.0,47,0.00,,---,0.00,VWS V14.01,2013-01-02 00:35:00,
2013-01-01 17:40:00,30.0,12.2,30.32,North,350,2.0,5.0,47,0.00,,---,0.00,VWS V14.01,2013-01-02 00:40:00,
2013-01-01 17:45:00,29.8,12.0,30.32,North,11,3.0,3.0,47,0.00,,---,0.00,VWS V14.01,2013-01-02 00:45:00,
2013-01-01 17:50:00,29.7,11.9,30.32,North,9,1.0,3.0,47,0.00,,---,0.00,VWS V14.01,2013-01-02 00:50:00,
2013-01-01 17:55:00,29.5,12.2,30.32,NNW,327,4.0,4.0,48,0.00,,---,0.00,VWS V14.01,2013-01-02 00:55:00,
2013-01-01 18:00:00,29.5,12.2,30.32,NNW,344,1.0,4.0,48,0.00,,---,0.00,VWS V14.01,2013-01-02 01:00:00,
2013-01-01 18:05:00,29.3,12.1,30.32,NNW,344,2.0,2.0,48,0.00,,---,0.00,VWS V14.01,2013-01-02 01:05:00,
2013-01-01 18:10:00,29.2,12.0,30.33,North,360,0.0,0.0,48,0.00,,---,0.00,VWS V14.01,2013-01-02 01:10:00,
2013-01-01 18:15:00,29.0,11.8,30.33,NNE,28,3.0,4.0,48,0.00,,---,0.00,VWS V14.01,2013-01-02 01:15:00,
2013-01-01 18:20:00,29.0,12.2,30.34,North,355,1.0,4.0,49,0.00,,---,0.00,VWS V14.01,2013-01-02 01:20:00,
2013-01-01 18:25:00,28.8,12.1,30.34,NNW,347,2.0,2.0,49,0.00,,---,0.00,VWS V14.01,2013-01-02 01:25:00,
2013-01-01 18:30:00,28.7,12.0,30.33,NNW,346,2.0,3.0,49,0.00,,---,0.00,VWS V14.01,2013-01-02 01:30:00,
2013-01-01 18:35:00,28.5,12.2,30.33,North,351,2.0,2.0,50,0.00,,---,0.00,VWS V14.01,2013-01-02 01:35:00,
2013-01-01 18:40:00,28.4,12.1,30.33,NW,316,0.0,1.0,50,0.00,,---,0.00,VWS V14.01,2013-01-02 01:40:00,
2013-01-01 18:45:00,28.4,12.1,30.34,NNW,334,2.0,2.0,50,0.00,,---,0.00,VWS V14.01,2013-01-02 01:45:00,
2013-01-01 18:50:00,28.5,12.7,30.34,NW,324,1.0,3.0,51,0.00,,---,0.00,VWS V14.01,2013-01-02 01:50:00,
2013-01-01 18:55:00,28.4,12.6,30.34,NW,325,1.0,3.0,51,0.00,,---,0.00,VWS V14.01,2013-01-02 01:55:00,
2013-01-01 19:00:00,28.2,12.9,30.35,NNW,342,0.0,3.0,52,0.00,,---,0.00,VWS V14.01,2013-01-02 02:00:00,
2013-01-01 19:05:00,28.0,12.7,30.35,NNW,338,0.0,0.0,52,0.00,,---,0.00,VWS V14.01,2013-01-02 02:05:00,
2013-01-01 19:10:00,27.9,12.1,30.35,NNW,343,2.0,3.0,51,0.00,,---,0.00,VWS V14.01,2013-01-02 02:10:00,
2013-01-01 19:15:00,27.8,12.0,30.35,NNW,342,4.0,4.0,51,0.00,,---,0.00,VWS V14.01,2013-01-02 02:15:00,
2013-01-01 19:20:00,27.8,12.0,30.36,North,5,2.0,4.0,51,0.00,,---,0.00,VWS V14.01,2013-01-02 02:20:00,
2013-01-01 19:25:00,27.6,11.9,30.36,NW,325,3.0,5.0,51,0.00,,---,0.00,VWS V14.01,2013-01-02 02:25:00,
2013-01-01 19:30:00,27.6,11.9,30.36,North,355,1.0,1.0,51,0.00,,---,0.00,VWS V14.01,2013-01-02 02:30:00,
2013-01-01 19:35:00,27.5,12.2,30.36,North,351,2.0,2.0,52,0.00,,---,0.00,VWS V14.01,2013-01-02 02:35:00,
2013-01-01 19:40:00,27.3,12.0,30.37,North,350,0.0,2.0,52,0.00,,---,0.00,VWS V14.01,2013-01-02 02:40:00,
2013-01-01 19:45:00,27.2,11.9,30.36,NW,322,1.0,2.0,52,0.00,,---,0.00,VWS V14.01,2013-01-02 02:45:00,
2013-01-01 19:50:00,27.1,11.8,30.36,North,349,3.0,3.0,52,0.00,,---,0.00,VWS V14.01,2013-01-02 02:50:00,
2013-01-01 19:55:00,27.0,11.7,30.36,NNW,337,1.0,3.0,52,0.00,,---,0.00,VWS V14.01,2013-01-02 02:55:00,
2013-01-01 20:00:00,26.9,12.1,30.36,NNE,19,2.0,3.0,53,0.00,,---,0.00,VWS V14.01,2013-01-02 03:00:00,
2013-01-01 20:05:00,26.7,11.9,30.36,North,355,0.0,1.0,53,0.00,,---,0.00,VWS V14.01,2013-01-02 03:05:00,
2013-01-01 20:10:00,26.7,12.3,30.37,NNE,15,3.0,3.0,54,0.00,,---,0.00,VWS V14.01,2013-01-02 03:10:00,
2013-01-01 20:15:00,26.6,12.2,30.37,NNW,344,2.0,3.0,54,0.00,,---,0.00,VWS V14.01,2013-01-02 03:15:00,
2013-01-01 20:20:00,26.5,12.1,30.37,North,360,2.0,5.0,54,0.00,,---,0.00,VWS V14.01,2013-01-02 03:20:00,
2013-01-01 20:25:00,26.4,12.4,30.37,North,355,1.0,1.0,55,0.00,,---,0.00,VWS V14.01,2013-01-02 03:25:00,
2013-01-01 20:30:00,26.4,12.4,30.38,NNW,344,0.0,2.0,55,0.00,,---,0.00,VWS V14.01,2013-01-02 03:30:00,
2013-01-01 20:35:00,26.3,12.3,30.38,North,9,1.0,3.0,55,0.00,,---,0.00,VWS V14.01,2013-01-02 03:35:00,
2013-01-01 20:40:00,26.2,12.7,30.38,NNW,343,2.0,3.0,56,0.00,,---,0.00,VWS V14.01,2013-01-02 03:40:00,
2013-01-01 20:45:00,26.1,12.6,30.37,NW,309,2.0,2.0,56,0.00,,---,0.00,VWS V14.01,2013-01-02 03:45:00,
2013-01-01 20:50:00,26.0,12.9,30.37,North,350,1.0,1.0,57,0.00,,---,0.00,VWS V14.01,2013-01-02 03:50:00,
2013-01-01 20:55:00,25.9,12.8,30.37,North,5,5.0,5.0,57,0.00,,---,0.00,VWS V14.01,2013-01-02 03:55:00,
2013-01-01 21:00:00,25.7,13.0,30.37,NNW,336,2.0,2.0,58,0.00,,---,0.00,VWS V14.01,2013-01-02 04:00:00,
2013-01-01 21:05:00,25.6,12.9,30.37,North,349,1.0,6.0,58,0.00,,---,0.00,VWS V14.01,2013-01-02 04:05:00,
2013-01-01 21:10:00,25.4,12.7,30.38,NNE,13,0.0,6.0,58,0.00,,---,0.00,VWS V14.01,2013-01-02 04:10:00,
2013-01-01 21:15:00,25.4,13.1,30.37,North,360,4.0,4.0,59,0.00,,---,0.00,VWS V14.01,2013-01-02 04:15:00,
2013-01-01 21:19:00,25.3,13.0,30.37,NW,323,3.0,5.0,59,0.00,,---,0.00,VWS V14.01,2013-01-02 04:19:00,
2013-01-01 21:20:00,25.3,13.0,30.37,NW,323,3.0,5.0,59,0.00,,---,0.00,VWS V14.01,2013-01-02 04:20:00,
2013-01-01 21:24:00,25.3,13.0,30.37,NNW,344,3.0,5.0,59,0.00,,---,0.00,VWS V14.01,2013-01-02 04:24:00,
2013-01-01 21:25:00,25.3,13.0,30.37,NNW,344,3.0,5.0,59,0.00,,---,0.00,VWS V14.01,2013-01-02 04:25:00,
2013-01-01 21:29:00,25.2,13.3,30.37,NNW,342,2.0,2.0,60,0.00,,---,0.00,VWS V14.01,2013-01-02 04:29:00,
2013-01-01 21:34:00,25.1,13.2,30.37,North,360,2.0,2.0,60,0.00,,---,0.00,VWS V14.01,2013-01-02 04:34:00,
2013-01-01 21:35:00,25.1,13.2,30.37,North,355,2.0,2.0,60,0.00,,---,0.00,VWS V14.01,2013-01-02 04:35:00,
2013-01-01 21:39:00,24.9,13.0,30.37,North,360,1.0,2.0,60,0.00,,---,0.00,VWS V14.01,2013-01-02 04:39:00,
2013-01-01 21:40:00,24.9,13.0,30.37,North,360,1.0,2.0,60,0.00,,---,0.00,VWS V14.01,2013-01-02 04:40:00,
2013-01-01 21:44:00,24.8,13.3,30.38,North,5,1.0,3.0,61,0.00,,---,0.00,VWS V14.01,2013-01-02 04:44:00,
2013-01-01 21:45:00,24.8,13.3,30.37,North,350,2.0,2.0,61,0.00,,---,0.00,VWS V14.01,2013-01-02 04:45:00,
2013-01-01 21:50:00,24.7,13.2,30.38,North,355,1.0,2.0,61,0.00,,---,0.00,VWS V14.01,2013-01-02 04:50:00,
2013-01-01 21:55:00,24.5,13.0,30.38,North,355,1.0,2.0,61,0.00,,---,0.00,VWS V14.01,2013-01-02 04:55:00,
2013-01-01 22:00:00,24.5,13.4,30.37,North,349,2.0,2.0,62,0.00,,---,0.00,VWS V14.01,2013-01-02 05:00:00,
2013-01-01 22:03:00,24.7,13.6,30.38,NNW,337,1.0,4.0,62,0.00,,---,0.00,VWS V14.01,2013-01-02 05:03:00,
2013-01-01 22:08:00,24.5,13.4,30.38,NNW,341,2.0,4.0,62,0.00,,---,0.00,VWS V14.01,2013-01-02 05:08:00,
2013-01-01 22:13:00,24.4,13.3,30.38,NNW,337,0.0,5.0,62,0.00,,---,0.00,VWS V14.01,2013-01-02 05:13:00,
2013-01-01 22:15:00,24.4,13.3,30.38,NNW,338,3.0,5.0,62,0.00,,---,0.00,VWS V14.01,2013-01-02 05:15:00,
2013-01-01 22:18:00,24.3,13.2,30.38,NW,322,2.0,3.0,62,0.00,,---,0.00,VWS V14.01,2013-01-02 05:18:00,
2013-01-01 22:23:00,24.2,13.1,30.38,North,5,5.0,5.0,62,0.00,,---,0.00,VWS V14.01,2013-01-02 05:23:00,
2013-01-01 22:25:00,24.2,13.1,30.38,NNW,332,0.0,5.0,62,0.00,,---,0.00,VWS V14.01,2013-01-02 05:25:00,
2013-01-01 22:28:00,24.0,13.2,30.39,NNW,338,1.0,5.0,63,0.00,,---,0.00,VWS V14.01,2013-01-02 05:28:00,
2013-01-01 22:30:00,24.0,13.2,30.39,NNW,338,1.0,5.0,63,0.00,,---,0.00,VWS V14.01,2013-01-02 05:30:00,
2013-01-01 22:33:00,24.1,13.3,30.39,NNE,18,6.0,6.0,63,0.00,,---,0.00,VWS V14.01,2013-01-02 05:33:00,
2013-01-01 22:35:00,24.1,13.3,30.38,NNW,348,5.0,7.0,63,0.00,,---,0.00,VWS V14.01,2013-01-02 05:35:00,
2013-01-01 22:38:00,24.1,13.3,30.38,NNW,333,5.0,5.0,63,0.00,,---,0.00,VWS V14.01,2013-01-02 05:38:00,
2013-01-01 22:40:00,24.1,13.3,30.38,North,355,4.0,6.0,63,0.00,,---,0.00,VWS V14.01,2013-01-02 05:40:00,
2013-01-01 22:43:00,24.1,13.3,30.39,NNW,346,5.0,5.0,63,0.00,,---,0.00,VWS V14.01,2013-01-02 05:43:00,
2013-01-01 22:45:00,24.1,13.3,30.39,NNW,331,4.0,5.0,63,0.00,,---,0.00,VWS V14.01,2013-01-02 05:45:00,
2013-01-01 22:48:00,24.1,13.3,30.39,NNW,329,2.0,4.0,63,0.00,,---,0.00,VWS V14.01,2013-01-02 05:48:00,
2013-01-01 22:50:00,24.1,13.3,30.39,North,355,2.0,4.0,63,0.00,,---,0.00,VWS V14.01,2013-01-02 05:50:00,
2013-01-01 22:53:00,24.0,13.2,30.39,NNW,348,3.0,3.0,63,0.00,,---,0.00,VWS V14.01,2013-01-02 05:53:00,
2013-01-01 22:55:00,24.0,13.2,30.39,WNW,303,4.0,4.0,63,0.00,,---,0.00,VWS V14.01,2013-01-02 05:55:00,
2013-01-01 22:58:00,24.0,13.2,30.39,NNE,21,4.0,5.0,63,0.00,,---,0.00,VWS V14.01,2013-01-02 05:58:00,
2013-01-01 23:00:00,24.0,13.2,30.38,NNE,13,2.0,5.0,63,0.00,,---,0.00,VWS V14.01,2013-01-02 06:00:00,
2013-01-01 23:03:00,24.0,13.2,30.38,NW,322,2.0,6.0,63,0.00,,---,0.00,VWS V14.01,2013-01-02 06:03:00,
2013-01-01 23:05:00,24.0,13.2,30.38,NW,322,2.0,6.0,63,0.00,,---,0.00,VWS V14.01,2013-01-02 06:05:00,
2013-01-01 23:08:00,23.8,13.1,30.39,NNE,28,3.0,3.0,63,0.00,,---,0.00,VWS V14.01,2013-01-02 06:08:00,
2013-01-01 23:10:00,23.8,13.1,30.39,NNW,338,2.0,3.0,63,0.00,,---,0.00,VWS V14.01,2013-01-02 06:10:00,
2013-01-01 23:13:00,23.7,13.0,30.39,North,5,3.0,3.0,63,0.00,,---,0.00,VWS V14.01,2013-01-02 06:13:00,
2013-01-01 23:15:00,23.7,13.0,30.39,North,5,3.0,3.0,63,0.00,,---,0.00,VWS V14.01,2013-01-02 06:15:00,
2013-01-01 23:18:00,23.5,12.8,30.39,North,355,1.0,2.0,63,0.00,,---,0.00,VWS V14.01,2013-01-02 06:18:00,
2013-01-01 23:20:00,23.4,13.0,30.39,North,355,0.0,2.0,64,0.00,,---,0.00,VWS V14.01,2013-01-02 06:20:00,
2013-01-01 23:23:00,23.2,12.8,30.39,NW,320,1.0,4.0,64,0.00,,---,0.00,VWS V14.01,2013-01-02 06:23:00,
2013-01-01 23:25:00,23.2,12.8,30.39,NW,325,1.0,4.0,64,0.00,,---,0.00,VWS V14.01,2013-01-02 06:25:00,
2013-01-01 23:28:00,23.1,13.1,30.39,NNW,340,1.0,2.0,65,0.00,,---,0.00,VWS V14.01,2013-01-02 06:28:00,
2013-01-01 23:30:00,23.1,13.1,30.39,NNW,331,1.0,2.0,65,0.00,,---,0.00,VWS V14.01,2013-01-02 06:30:00,
2013-01-01 23:33:00,23.1,13.1,30.40,North,351,2.0,2.0,65,0.00,,---,0.00,VWS V14.01,2013-01-02 06:33:00,
2013-01-01 23:35:00,23.1,13.1,30.40,North,351,2.0,2.0,65,0.00,,---,0.00,VWS V14.01,2013-01-02 06:35:00,
2013-01-01 23:38:00,22.9,12.9,30.40,West,271,0.0,1.0,65,0.00,,---,0.00,VWS V14.01,2013-01-02 06:38:00,
2013-01-01 23:40:00,22.9,12.9,30.40,West,271,0.0,1.0,65,0.00,,---,0.00,VWS V14.01,2013-01-02 06:40:00,
2013-01-01 23:43:00,22.8,12.8,30.41,North,9,0.0,0.0,65,0.00,,---,0.00,VWS V14.01,2013-01-02 06:43:00,
2013-01-01 23:48:00,22.3,12.7,30.41,North,9,0.0,0.0,66,0.00,,---,0.00,VWS V14.01,2013-01-02 06:48:00,
2013-01-01 23:50:00,22.3,12.7,30.41,North,9,0.0,0.0,66,0.00,,---,0.00,VWS V14.01,2013-01-02 06:50:00,
2013-01-01 23:53:00,22.2,12.9,30.41,NW,325,0.0,1.0,67,0.00,,---,0.00,VWS V14.01,2013-01-02 06:53:00,
2013-01-01 23:55:00,22.2,12.9,30.41,NW,325,0.0,1.0,67,0.00,,---,0.00,VWS V14.01,2013-01-02 06:55:00,
2013-01-01 23:58:00,22.3,13.0,30.41,NW,325,0.0,0.0,67,0.00,,---,0.00,VWS V14.01,2013-01-02 06:58:00,